sensor_id;sensor_type;location;lat;lon;timestamp;temperature;humidity
22966;DHT22;11649;48.090;9.754;2023-01-15T00:01:24;9.30;81.70
22966;DHT22;11649;48.090;9.754;2023-01-15T00:03:53;9.30;80.00
22966;DHT22;11649;48.090;9.754;2023-01-15T00:06:22;9.30;80.70
22966;DHT22;11649;48.090;9.754;2023-01-15T00:08:50;9.30;76.70
22966;DHT22;11649;48.090;9.754;2023-01-15T00:11:17;9.30;77.10
22966;DHT22;11649;48.090;9.754;2023-01-15T00:13:44;9.40;75.70
22966;DHT22;11649;48.090;9.754;2023-01-15T00:16:14;9.40;75.70
22966;DHT22;11649;48.090;9.754;2023-01-15T00:18:42;9.40;75.00
22966;DHT22;11649;48.090;9.754;2023-01-15T00:21:11;9.40;74.90
22966;DHT22;11649;48.090;9.754;2023-01-15T00:23:38;9.40;76.20
22966;DHT22;11649;48.090;9.754;2023-01-15T00:26:28;9.40;75.30
22966;DHT22;11649;48.090;9.754;2023-01-15T00:29:14;9.50;75.90
22966;DHT22;11649;48.090;9.754;2023-01-15T00:31:42;9.50;75.00
22966;DHT22;11649;48.090;9.754;2023-01-15T00:34:10;9.50;75.60
22966;DHT22;11649;48.090;9.754;2023-01-15T00:36:36;9.50;76.40
22966;DHT22;11649;48.090;9.754;2023-01-15T00:39:04;9.50;77.20
22966;DHT22;11649;48.090;9.754;2023-01-15T00:41:30;9.50;78.10
22966;DHT22;11649;48.090;9.754;2023-01-15T00:43:57;9.50;77.60
22966;DHT22;11649;48.090;9.754;2023-01-15T00:46:24;9.60;76.10
22966;DHT22;11649;48.090;9.754;2023-01-15T00:48:51;9.50;76.10
22966;DHT22;11649;48.090;9.754;2023-01-15T00:51:17;9.50;77.30
22966;DHT22;11649;48.090;9.754;2023-01-15T00:53:44;9.50;76.90
22966;DHT22;11649;48.090;9.754;2023-01-15T00:56:11;9.50;77.00
22966;DHT22;11649;48.090;9.754;2023-01-15T00:58:38;9.40;77.90
22966;DHT22;11649;48.090;9.754;2023-01-15T01:01:04;9.50;78.40
22966;DHT22;11649;48.090;9.754;2023-01-15T01:03:31;9.50;77.10
22966;DHT22;11649;48.090;9.754;2023-01-15T01:05:59;9.50;77.20
22966;DHT22;11649;48.090;9.754;2023-01-15T01:08:27;9.50;77.50
22966;DHT22;11649;48.090;9.754;2023-01-15T01:11:06;9.50;76.70
22966;DHT22;11649;48.090;9.754;2023-01-15T01:13:34;9.50;76.60
22966;DHT22;11649;48.090;9.754;2023-01-15T01:16:02;9.60;76.50
22966;DHT22;11649;48.090;9.754;2023-01-15T01:18:29;9.60;76.20
22966;DHT22;11649;48.090;9.754;2023-01-15T01:20:55;9.60;76.10
22966;DHT22;11649;48.090;9.754;2023-01-15T01:23:23;9.60;77.80
22966;DHT22;11649;48.090;9.754;2023-01-15T01:25:50;9.50;77.30
22966;DHT22;11649;48.090;9.754;2023-01-15T01:28:17;9.50;79.00
22966;DHT22;11649;48.090;9.754;2023-01-15T01:30:44;9.50;79.30
22966;DHT22;11649;48.090;9.754;2023-01-15T01:33:10;9.50;77.80
22966;DHT22;11649;48.090;9.754;2023-01-15T01:35:37;9.50;79.40
22966;DHT22;11649;48.090;9.754;2023-01-15T01:38:04;9.50;78.70
22966;DHT22;11649;48.090;9.754;2023-01-15T01:40:31;9.60;77.60
22966;DHT22;11649;48.090;9.754;2023-01-15T01:42:58;9.60;79.00
22966;DHT22;11649;48.090;9.754;2023-01-15T01:45:27;9.60;78.70
22966;DHT22;11649;48.090;9.754;2023-01-15T01:48:02;9.60;79.30
22966;DHT22;11649;48.090;9.754;2023-01-15T01:50:31;9.70;78.90
22966;DHT22;11649;48.090;9.754;2023-01-15T01:53:06;9.60;79.90
22966;DHT22;11649;48.090;9.754;2023-01-15T01:55:34;9.60;83.20
22966;DHT22;11649;48.090;9.754;2023-01-15T01:58:03;9.50;85.30
22966;DHT22;11649;48.090;9.754;2023-01-15T02:00:32;9.30;91.00
22966;DHT22;11649;48.090;9.754;2023-01-15T02:03:01;9.20;92.30
22966;DHT22;11649;48.090;9.754;2023-01-15T02:05:33;9.10;91.70
22966;DHT22;11649;48.090;9.754;2023-01-15T02:08:00;9.10;91.40
22966;DHT22;11649;48.090;9.754;2023-01-15T02:10:27;8.90;93.00
22966;DHT22;11649;48.090;9.754;2023-01-15T02:15:41;9.00;90.80
22966;DHT22;11649;48.090;9.754;2023-01-15T02:18:26;9.00;91.20
22966;DHT22;11649;48.090;9.754;2023-01-15T02:21:04;9.00;90.20
22966;DHT22;11649;48.090;9.754;2023-01-15T02:23:46;9.10;90.00
22966;DHT22;11649;48.090;9.754;2023-01-15T02:29:19;9.10;86.50
22966;DHT22;11649;48.090;9.754;2023-01-15T02:31:50;9.10;87.30
22966;DHT22;11649;48.090;9.754;2023-01-15T02:34:34;9.10;87.40
22966;DHT22;11649;48.090;9.754;2023-01-15T02:37:12;9.10;86.30
22966;DHT22;11649;48.090;9.754;2023-01-15T02:39:42;9.20;85.10
22966;DHT22;11649;48.090;9.754;2023-01-15T02:42:11;9.10;85.20
22966;DHT22;11649;48.090;9.754;2023-01-15T02:44:41;9.20;84.40
22966;DHT22;11649;48.090;9.754;2023-01-15T02:47:10;9.20;84.80
22966;DHT22;11649;48.090;9.754;2023-01-15T02:49:38;9.20;85.80
22966;DHT22;11649;48.090;9.754;2023-01-15T02:52:16;9.20;84.70
22966;DHT22;11649;48.090;9.754;2023-01-15T02:54:49;9.20;86.30
22966;DHT22;11649;48.090;9.754;2023-01-15T02:57:19;9.10;86.70
22966;DHT22;11649;48.090;9.754;2023-01-15T02:59:47;9.10;86.80
22966;DHT22;11649;48.090;9.754;2023-01-15T03:02:18;9.10;86.00
22966;DHT22;11649;48.090;9.754;2023-01-15T03:04:51;9.10;86.20
22966;DHT22;11649;48.090;9.754;2023-01-15T03:07:25;9.10;85.40
22966;DHT22;11649;48.090;9.754;2023-01-15T03:09:54;9.10;87.30
22966;DHT22;11649;48.090;9.754;2023-01-15T03:15:09;9.10;87.70
22966;DHT22;11649;48.090;9.754;2023-01-15T03:18:01;9.10;88.60
22966;DHT22;11649;48.090;9.754;2023-01-15T03:20:30;9.00;87.50
22966;DHT22;11649;48.090;9.754;2023-01-15T03:23:04;9.10;87.70
22966;DHT22;11649;48.090;9.754;2023-01-15T03:25:39;9.00;87.50
22966;DHT22;11649;48.090;9.754;2023-01-15T03:28:09;9.10;87.20
22966;DHT22;11649;48.090;9.754;2023-01-15T03:30:37;9.00;88.20
22966;DHT22;11649;48.090;9.754;2023-01-15T03:33:04;9.00;88.80
22966;DHT22;11649;48.090;9.754;2023-01-15T03:35:58;8.90;88.80
22966;DHT22;11649;48.090;9.754;2023-01-15T03:38:36;9.00;88.70
22966;DHT22;11649;48.090;9.754;2023-01-15T03:41:13;9.00;89.80
22966;DHT22;11649;48.090;9.754;2023-01-15T03:57:45;9.00;91.20
22966;DHT22;11649;48.090;9.754;2023-01-15T04:00:18;9.10;91.40
22966;DHT22;11649;48.090;9.754;2023-01-15T04:02:47;9.00;91.70
22966;DHT22;11649;48.090;9.754;2023-01-15T04:05:15;9.10;91.90
22966;DHT22;11649;48.090;9.754;2023-01-15T04:07:44;9.00;91.90
22966;DHT22;11649;48.090;9.754;2023-01-15T04:10:11;9.00;92.30
22966;DHT22;11649;48.090;9.754;2023-01-15T04:12:38;9.10;92.30
22966;DHT22;11649;48.090;9.754;2023-01-15T04:15:05;9.10;93.20
22966;DHT22;11649;48.090;9.754;2023-01-15T04:17:32;9.10;93.50
22966;DHT22;11649;48.090;9.754;2023-01-15T04:19:59;9.10;93.40
22966;DHT22;11649;48.090;9.754;2023-01-15T04:22:25;9.20;93.50
22966;DHT22;11649;48.090;9.754;2023-01-15T04:24:52;9.20;93.90
22966;DHT22;11649;48.090;9.754;2023-01-15T04:27:20;9.30;93.80
22966;DHT22;11649;48.090;9.754;2023-01-15T04:29:47;9.20;95.70
22966;DHT22;11649;48.090;9.754;2023-01-15T04:32:16;9.10;99.90
22966;DHT22;11649;48.090;9.754;2023-01-15T04:34:43;8.90;99.90
22966;DHT22;11649;48.090;9.754;2023-01-15T04:37:10;8.70;99.90
22966;DHT22;11649;48.090;9.754;2023-01-15T04:39:36;8.60;99.90
22966;DHT22;11649;48.090;9.754;2023-01-15T04:42:03;8.60;99.90
22966;DHT22;11649;48.090;9.754;2023-01-15T04:44:48;8.70;99.90
22966;DHT22;11649;48.090;9.754;2023-01-15T04:47:15;8.70;99.90
22966;DHT22;11649;48.090;9.754;2023-01-15T04:49:42;8.80;99.90
22966;DHT22;11649;48.090;9.754;2023-01-15T04:52:08;8.80;99.90
22966;DHT22;11649;48.090;9.754;2023-01-15T04:54:35;8.80;99.90
22966;DHT22;11649;48.090;9.754;2023-01-15T04:57:02;8.90;99.90
22966;DHT22;11649;48.090;9.754;2023-01-15T04:59:29;9.00;99.90
22966;DHT22;11649;48.090;9.754;2023-01-15T05:01:55;9.10;99.90
22966;DHT22;11649;48.090;9.754;2023-01-15T05:04:32;9.10;99.90
22966;DHT22;11649;48.090;9.754;2023-01-15T05:07:00;9.10;99.90
22966;DHT22;11649;48.090;9.754;2023-01-15T05:09:28;9.20;99.90
22966;DHT22;11649;48.090;9.754;2023-01-15T05:11:54;9.10;99.90
22966;DHT22;11649;48.090;9.754;2023-01-15T05:14:21;9.10;99.90
22966;DHT22;11649;48.090;9.754;2023-01-15T05:16:52;9.10;99.90
22966;DHT22;11649;48.090;9.754;2023-01-15T05:19:19;9.10;99.90
22966;DHT22;11649;48.090;9.754;2023-01-15T05:21:46;9.20;99.90
22966;DHT22;11649;48.090;9.754;2023-01-15T05:24:15;9.20;99.90
22966;DHT22;11649;48.090;9.754;2023-01-15T05:26:42;9.10;99.90
22966;DHT22;11649;48.090;9.754;2023-01-15T05:29:09;9.20;99.90
22966;DHT22;11649;48.090;9.754;2023-01-15T05:31:38;9.20;99.90
22966;DHT22;11649;48.090;9.754;2023-01-15T05:34:04;9.20;99.90
22966;DHT22;11649;48.090;9.754;2023-01-15T05:36:31;9.20;99.90
22966;DHT22;11649;48.090;9.754;2023-01-15T05:38:58;9.20;99.90
22966;DHT22;11649;48.090;9.754;2023-01-15T05:41:28;9.20;99.90
22966;DHT22;11649;48.090;9.754;2023-01-15T05:44:20;9.30;99.90
22966;DHT22;11649;48.090;9.754;2023-01-15T05:46:48;9.40;99.90
22966;DHT22;11649;48.090;9.754;2023-01-15T05:49:18;9.30;99.90
22966;DHT22;11649;48.090;9.754;2023-01-15T05:51:46;9.40;99.90
22966;DHT22;11649;48.090;9.754;2023-01-15T05:54:15;9.40;99.90
22966;DHT22;11649;48.090;9.754;2023-01-15T05:56:42;9.40;99.90
22966;DHT22;11649;48.090;9.754;2023-01-15T05:59:11;9.40;99.90
22966;DHT22;11649;48.090;9.754;2023-01-15T06:01:39;9.40;99.90
22966;DHT22;11649;48.090;9.754;2023-01-15T06:04:07;9.40;99.90
22966;DHT22;11649;48.090;9.754;2023-01-15T06:06:34;9.30;99.90
22966;DHT22;11649;48.090;9.754;2023-01-15T06:09:03;9.30;99.90
22966;DHT22;11649;48.090;9.754;2023-01-15T06:11:30;9.30;99.90
22966;DHT22;11649;48.090;9.754;2023-01-15T06:13:58;9.30;99.90
22966;DHT22;11649;48.090;9.754;2023-01-15T06:16:25;9.30;99.90
22966;DHT22;11649;48.090;9.754;2023-01-15T06:18:52;9.30;99.90
22966;DHT22;11649;48.090;9.754;2023-01-15T06:21:19;9.20;99.90
22966;DHT22;11649;48.090;9.754;2023-01-15T06:23:46;9.20;99.90
22966;DHT22;11649;48.090;9.754;2023-01-15T06:26:15;9.10;99.90
22966;DHT22;11649;48.090;9.754;2023-01-15T06:28:42;9.20;99.90
22966;DHT22;11649;48.090;9.754;2023-01-15T06:31:12;9.20;99.90
22966;DHT22;11649;48.090;9.754;2023-01-15T06:33:40;9.10;99.90
22966;DHT22;11649;48.090;9.754;2023-01-15T06:36:12;9.10;99.90
22966;DHT22;11649;48.090;9.754;2023-01-15T06:38:40;9.10;99.90
22966;DHT22;11649;48.090;9.754;2023-01-15T06:41:12;9.00;99.90
22966;DHT22;11649;48.090;9.754;2023-01-15T06:43:57;9.00;99.90
22966;DHT22;11649;48.090;9.754;2023-01-15T06:46:45;9.00;99.90
22966;DHT22;11649;48.090;9.754;2023-01-15T06:49:33;8.90;99.90
22966;DHT22;11649;48.090;9.754;2023-01-15T06:52:01;8.90;99.90
22966;DHT22;11649;48.090;9.754;2023-01-15T06:54:28;8.90;99.90
22966;DHT22;11649;48.090;9.754;2023-01-15T06:56:55;8.90;99.90
22966;DHT22;11649;48.090;9.754;2023-01-15T06:59:22;8.90;99.90
22966;DHT22;11649;48.090;9.754;2023-01-15T07:01:49;8.90;99.90
22966;DHT22;11649;48.090;9.754;2023-01-15T07:04:15;8.90;99.90
22966;DHT22;11649;48.090;9.754;2023-01-15T07:06:45;8.80;99.90
22966;DHT22;11649;48.090;9.754;2023-01-15T07:09:13;8.80;99.90
22966;DHT22;11649;48.090;9.754;2023-01-15T07:11:39;8.80;99.90
22966;DHT22;11649;48.090;9.754;2023-01-15T07:14:23;8.80;99.90
22966;DHT22;11649;48.090;9.754;2023-01-15T07:16:51;8.80;99.90
22966;DHT22;11649;48.090;9.754;2023-01-15T07:19:18;8.70;99.90
22966;DHT22;11649;48.090;9.754;2023-01-15T07:21:45;8.70;99.90
22966;DHT22;11649;48.090;9.754;2023-01-15T07:24:12;8.60;99.90
22966;DHT22;11649;48.090;9.754;2023-01-15T07:26:41;8.40;99.90
22966;DHT22;11649;48.090;9.754;2023-01-15T07:29:08;8.40;99.90
22966;DHT22;11649;48.090;9.754;2023-01-15T07:31:35;8.30;99.90
22966;DHT22;11649;48.090;9.754;2023-01-15T07:34:02;8.30;99.90
22966;DHT22;11649;48.090;9.754;2023-01-15T07:36:30;8.40;99.90
22966;DHT22;11649;48.090;9.754;2023-01-15T07:38:56;8.40;99.90
22966;DHT22;11649;48.090;9.754;2023-01-15T07:41:23;8.30;99.90
22966;DHT22;11649;48.090;9.754;2023-01-15T07:44:09;8.30;99.90
22966;DHT22;11649;48.090;9.754;2023-01-15T07:46:55;8.30;99.90
22966;DHT22;11649;48.090;9.754;2023-01-15T07:49:44;8.20;99.90
22966;DHT22;11649;48.090;9.754;2023-01-15T07:52:19;8.20;99.90
22966;DHT22;11649;48.090;9.754;2023-01-15T07:54:47;8.20;99.90
22966;DHT22;11649;48.090;9.754;2023-01-15T07:57:17;8.20;99.90
22966;DHT22;11649;48.090;9.754;2023-01-15T07:59:44;8.30;99.90
22966;DHT22;11649;48.090;9.754;2023-01-15T08:02:10;8.30;99.90
22966;DHT22;11649;48.090;9.754;2023-01-15T08:04:38;8.30;99.90
22966;DHT22;11649;48.090;9.754;2023-01-15T08:07:05;8.30;99.90
22966;DHT22;11649;48.090;9.754;2023-01-15T08:09:33;8.30;99.90
22966;DHT22;11649;48.090;9.754;2023-01-15T08:12:02;8.40;99.90
22966;DHT22;11649;48.090;9.754;2023-01-15T08:14:47;8.40;99.90
22966;DHT22;11649;48.090;9.754;2023-01-15T08:17:36;8.40;99.90
22966;DHT22;11649;48.090;9.754;2023-01-15T08:20:07;8.40;99.90
22966;DHT22;11649;48.090;9.754;2023-01-15T08:22:34;8.40;99.90
22966;DHT22;11649;48.090;9.754;2023-01-15T08:25:01;8.40;99.90
22966;DHT22;11649;48.090;9.754;2023-01-15T08:27:28;8.40;99.90
22966;DHT22;11649;48.090;9.754;2023-01-15T08:29:57;8.40;99.90
22966;DHT22;11649;48.090;9.754;2023-01-15T08:32:24;8.30;99.90
22966;DHT22;11649;48.090;9.754;2023-01-15T08:34:51;8.40;99.90
22966;DHT22;11649;48.090;9.754;2023-01-15T08:37:17;8.40;99.90
22966;DHT22;11649;48.090;9.754;2023-01-15T08:39:44;8.50;99.90
22966;DHT22;11649;48.090;9.754;2023-01-15T08:42:11;8.50;99.90
22966;DHT22;11649;48.090;9.754;2023-01-15T08:44:38;8.50;99.90
22966;DHT22;11649;48.090;9.754;2023-01-15T08:47:05;8.50;99.90
22966;DHT22;11649;48.090;9.754;2023-01-15T08:49:31;8.90;99.90
22966;DHT22;11649;48.090;9.754;2023-01-15T08:51:58;8.40;99.90
22966;DHT22;11649;48.090;9.754;2023-01-15T08:54:26;8.40;99.90
22966;DHT22;11649;48.090;9.754;2023-01-15T08:56:53;8.50;99.90
22966;DHT22;11649;48.090;9.754;2023-01-15T08:59:20;8.40;99.90
22966;DHT22;11649;48.090;9.754;2023-01-15T09:01:47;8.30;99.90
22966;DHT22;11649;48.090;9.754;2023-01-15T09:04:15;8.10;99.90
22966;DHT22;11649;48.090;9.754;2023-01-15T09:06:42;7.80;99.90
22966;DHT22;11649;48.090;9.754;2023-01-15T09:09:10;7.50;99.90
22966;DHT22;11649;48.090;9.754;2023-01-15T09:11:37;7.30;99.90
22966;DHT22;11649;48.090;9.754;2023-01-15T09:14:08;7.20;99.90
22966;DHT22;11649;48.090;9.754;2023-01-15T09:16:54;7.20;99.90
22966;DHT22;11649;48.090;9.754;2023-01-15T09:19:23;7.10;99.90
22966;DHT22;11649;48.090;9.754;2023-01-15T09:21:49;7.10;99.90
22966;DHT22;11649;48.090;9.754;2023-01-15T09:24:16;7.10;99.90
22966;DHT22;11649;48.090;9.754;2023-01-15T09:26:43;7.10;99.90
22966;DHT22;11649;48.090;9.754;2023-01-15T09:29:10;7.10;99.90
22966;DHT22;11649;48.090;9.754;2023-01-15T09:31:36;7.00;99.90
22966;DHT22;11649;48.090;9.754;2023-01-15T09:34:03;7.00;99.90
22966;DHT22;11649;48.090;9.754;2023-01-15T09:36:32;6.90;99.90
22966;DHT22;11649;48.090;9.754;2023-01-15T09:39:00;6.90;99.90
22966;DHT22;11649;48.090;9.754;2023-01-15T09:41:56;6.90;99.90
22966;DHT22;11649;48.090;9.754;2023-01-15T09:47:26;6.90;99.90
22966;DHT22;11649;48.090;9.754;2023-01-15T09:50:02;6.90;99.90
22966;DHT22;11649;48.090;9.754;2023-01-15T09:52:57;6.90;99.90
22966;DHT22;11649;48.090;9.754;2023-01-15T09:55:31;7.00;99.90
22966;DHT22;11649;48.090;9.754;2023-01-15T09:58:02;7.00;99.90
22966;DHT22;11649;48.090;9.754;2023-01-15T10:00:46;7.10;99.90
22966;DHT22;11649;48.090;9.754;2023-01-15T10:03:47;7.20;99.90
22966;DHT22;11649;48.090;9.754;2023-01-15T10:06:23;7.20;99.90
22966;DHT22;11649;48.090;9.754;2023-01-15T10:08:58;7.20;99.90
22966;DHT22;11649;48.090;9.754;2023-01-15T10:11:49;7.20;99.90
22966;DHT22;11649;48.090;9.754;2023-01-15T10:17:17;6.90;99.90
22966;DHT22;11649;48.090;9.754;2023-01-15T10:19:44;6.80;99.90
22966;DHT22;11649;48.090;9.754;2023-01-15T10:25:01;6.60;99.90
22966;DHT22;11649;48.090;9.754;2023-01-15T10:27:30;6.60;99.90
22966;DHT22;11649;48.090;9.754;2023-01-15T10:30:15;6.50;99.90
22966;DHT22;11649;48.090;9.754;2023-01-15T10:32:45;6.50;99.90
22966;DHT22;11649;48.090;9.754;2023-01-15T10:35:53;6.40;99.90
22966;DHT22;11649;48.090;9.754;2023-01-15T10:39:01;6.40;99.90
22966;DHT22;11649;48.090;9.754;2023-01-15T10:41:42;6.40;99.90
22966;DHT22;11649;48.090;9.754;2023-01-15T10:44:19;6.40;99.90
22966;DHT22;11649;48.090;9.754;2023-01-15T10:46:55;6.40;99.90
22966;DHT22;11649;48.090;9.754;2023-01-15T10:49:27;6.50;99.90
22966;DHT22;11649;48.090;9.754;2023-01-15T10:52:21;6.50;99.90
22966;DHT22;11649;48.090;9.754;2023-01-15T10:55:03;6.50;99.90
22966;DHT22;11649;48.090;9.754;2023-01-15T10:57:40;6.40;99.90
22966;DHT22;11649;48.090;9.754;2023-01-15T11:00:10;6.40;99.90
22966;DHT22;11649;48.090;9.754;2023-01-15T11:02:41;6.40;99.90
22966;DHT22;11649;48.090;9.754;2023-01-15T11:05:17;6.40;99.90
22966;DHT22;11649;48.090;9.754;2023-01-15T11:07:48;6.40;99.90
22966;DHT22;11649;48.090;9.754;2023-01-15T11:10:34;6.40;99.90
22966;DHT22;11649;48.090;9.754;2023-01-15T11:13:21;6.40;99.90
22966;DHT22;11649;48.090;9.754;2023-01-15T11:16:14;6.30;99.90
22966;DHT22;11649;48.090;9.754;2023-01-15T11:19:02;6.30;99.90
22966;DHT22;11649;48.090;9.754;2023-01-15T11:21:50;6.20;99.90
22966;DHT22;11649;48.090;9.754;2023-01-15T11:24:18;6.10;99.90
22966;DHT22;11649;48.090;9.754;2023-01-15T11:26:47;6.10;99.90
22966;DHT22;11649;48.090;9.754;2023-01-15T11:29:27;6.00;99.90
22966;DHT22;11649;48.090;9.754;2023-01-15T11:31:55;5.90;99.90
22966;DHT22;11649;48.090;9.754;2023-01-15T11:34:22;5.80;99.90
22966;DHT22;11649;48.090;9.754;2023-01-15T11:37:05;5.70;99.90
22966;DHT22;11649;48.090;9.754;2023-01-15T11:39:32;5.70;99.90
22966;DHT22;11649;48.090;9.754;2023-01-15T11:42:04;5.70;99.90
22966;DHT22;11649;48.090;9.754;2023-01-15T11:44:51;5.60;99.90
22966;DHT22;11649;48.090;9.754;2023-01-15T11:47:52;5.60;99.90
22966;DHT22;11649;48.090;9.754;2023-01-15T11:50:49;5.50;99.90
22966;DHT22;11649;48.090;9.754;2023-01-15T11:53:21;5.40;99.90
22966;DHT22;11649;48.090;9.754;2023-01-15T11:55:58;5.50;99.90
22966;DHT22;11649;48.090;9.754;2023-01-15T11:58:31;5.50;99.90
22966;DHT22;11649;48.090;9.754;2023-01-15T12:00:59;5.20;99.90
22966;DHT22;11649;48.090;9.754;2023-01-15T12:03:29;5.30;99.90
22966;DHT22;11649;48.090;9.754;2023-01-15T12:06:02;5.20;99.90
22966;DHT22;11649;48.090;9.754;2023-01-15T12:11:23;5.10;99.90
22966;DHT22;11649;48.090;9.754;2023-01-15T12:14:05;5.10;99.90
22966;DHT22;11649;48.090;9.754;2023-01-15T12:16:40;5.10;99.90
22966;DHT22;11649;48.090;9.754;2023-01-15T12:28:25;4.90;99.90
22966;DHT22;11649;48.090;9.754;2023-01-15T12:31:04;4.90;99.90
22966;DHT22;11649;48.090;9.754;2023-01-15T12:33:51;4.90;99.90
22966;DHT22;11649;48.090;9.754;2023-01-15T12:36:33;4.90;99.90
22966;DHT22;11649;48.090;9.754;2023-01-15T12:41:58;4.80;99.90
22966;DHT22;11649;48.090;9.754;2023-01-15T12:44:51;4.70;99.90
22966;DHT22;11649;48.090;9.754;2023-01-15T12:47:51;4.80;99.90
22966;DHT22;11649;48.090;9.754;2023-01-15T12:50:38;4.70;99.90
22966;DHT22;11649;48.090;9.754;2023-01-15T12:58:50;4.50;99.90
22966;DHT22;11649;48.090;9.754;2023-01-15T13:04:19;4.10;99.90
22966;DHT22;11649;48.090;9.754;2023-01-15T13:06:55;4.70;99.90
22966;DHT22;11649;48.090;9.754;2023-01-15T13:09:42;5.90;99.90
22966;DHT22;11649;48.090;9.754;2023-01-15T13:12:14;5.90;99.90
22966;DHT22;11649;48.090;9.754;2023-01-15T13:14:49;6.00;99.90
22966;DHT22;11649;48.090;9.754;2023-01-15T13:17:54;5.10;99.90
22966;DHT22;11649;48.090;9.754;2023-01-15T13:20:59;5.10;99.90
22966;DHT22;11649;48.090;9.754;2023-01-15T13:24:00;4.40;99.90
22966;DHT22;11649;48.090;9.754;2023-01-15T13:32:26;4.40;99.90
22966;DHT22;11649;48.090;9.754;2023-01-15T13:37:42;4.30;99.90
22966;DHT22;11649;48.090;9.754;2023-01-15T13:40:41;5.20;99.90
22966;DHT22;11649;48.090;9.754;2023-01-15T13:43:37;4.90;99.90
22966;DHT22;11649;48.090;9.754;2023-01-15T13:46:10;4.10;99.90
22966;DHT22;11649;48.090;9.754;2023-01-15T13:48:47;4.10;99.90
22966;DHT22;11649;48.090;9.754;2023-01-15T13:51:29;5.10;99.90
22966;DHT22;11649;48.090;9.754;2023-01-15T13:53:58;3.80;99.90
22966;DHT22;11649;48.090;9.754;2023-01-15T13:56:28;5.20;99.90
22966;DHT22;11649;48.090;9.754;2023-01-15T14:01:35;4.00;99.90
22966;DHT22;11649;48.090;9.754;2023-01-15T14:06:45;4.20;99.90
22966;DHT22;11649;48.090;9.754;2023-01-15T14:12:10;5.40;99.90
22966;DHT22;11649;48.090;9.754;2023-01-15T14:28:37;3.90;99.90
22966;DHT22;11649;48.090;9.754;2023-01-15T14:34:26;3.80;99.90
22966;DHT22;11649;48.090;9.754;2023-01-15T14:45:03;3.80;99.90
22966;DHT22;11649;48.090;9.754;2023-01-15T14:47:35;3.80;99.90
22966;DHT22;11649;48.090;9.754;2023-01-15T15:01:23;3.70;99.90
22966;DHT22;11649;48.090;9.754;2023-01-15T15:03:57;3.70;99.90
22966;DHT22;11649;48.090;9.754;2023-01-15T15:06:25;3.70;99.90
22966;DHT22;11649;48.090;9.754;2023-01-15T15:08:59;3.60;99.90
22966;DHT22;11649;48.090;9.754;2023-01-15T15:11:35;3.60;99.90
22966;DHT22;11649;48.090;9.754;2023-01-15T15:14:25;3.60;99.90
22966;DHT22;11649;48.090;9.754;2023-01-15T15:16:54;3.60;99.90
22966;DHT22;11649;48.090;9.754;2023-01-15T15:21:59;3.60;99.90
22966;DHT22;11649;48.090;9.754;2023-01-15T15:24:32;3.70;99.90
22966;DHT22;11649;48.090;9.754;2023-01-15T15:27:33;3.70;99.90
22966;DHT22;11649;48.090;9.754;2023-01-15T15:30:09;3.50;99.90
22966;DHT22;11649;48.090;9.754;2023-01-15T15:32:36;3.60;99.90
22966;DHT22;11649;48.090;9.754;2023-01-15T15:35:34;3.60;99.90
22966;DHT22;11649;48.090;9.754;2023-01-15T15:38:04;3.60;99.90
22966;DHT22;11649;48.090;9.754;2023-01-15T15:40:33;3.50;99.90
22966;DHT22;11649;48.090;9.754;2023-01-15T15:43:21;3.60;99.90
22966;DHT22;11649;48.090;9.754;2023-01-15T15:46:29;3.60;99.90
22966;DHT22;11649;48.090;9.754;2023-01-15T15:49:15;3.50;99.90
22966;DHT22;11649;48.090;9.754;2023-01-15T15:51:52;3.40;99.90
22966;DHT22;11649;48.090;9.754;2023-01-15T15:54:27;3.40;99.90
22966;DHT22;11649;48.090;9.754;2023-01-15T15:57:04;3.40;99.90
22966;DHT22;11649;48.090;9.754;2023-01-15T15:59:37;3.30;99.90
22966;DHT22;11649;48.090;9.754;2023-01-15T16:02:29;3.30;99.90
22966;DHT22;11649;48.090;9.754;2023-01-15T16:05:02;3.30;99.90
22966;DHT22;11649;48.090;9.754;2023-01-15T16:07:31;3.30;99.90
22966;DHT22;11649;48.090;9.754;2023-01-15T16:10:11;3.30;99.90
22966;DHT22;11649;48.090;9.754;2023-01-15T16:12:50;3.30;99.90
22966;DHT22;11649;48.090;9.754;2023-01-15T16:15:26;3.40;99.90
22966;DHT22;11649;48.090;9.754;2023-01-15T16:17:56;3.40;99.90
22966;DHT22;11649;48.090;9.754;2023-01-15T16:20:24;3.40;99.90
22966;DHT22;11649;48.090;9.754;2023-01-15T16:22:55;3.40;99.90
22966;DHT22;11649;48.090;9.754;2023-01-15T16:25:37;3.40;99.90
22966;DHT22;11649;48.090;9.754;2023-01-15T16:28:05;3.40;99.90
22966;DHT22;11649;48.090;9.754;2023-01-15T16:30:33;3.30;99.90
22966;DHT22;11649;48.090;9.754;2023-01-15T16:33:05;3.20;99.90
22966;DHT22;11649;48.090;9.754;2023-01-15T16:35:35;3.30;99.90
22966;DHT22;11649;48.090;9.754;2023-01-15T16:38:03;3.30;99.90
22966;DHT22;11649;48.090;9.754;2023-01-15T16:40:36;3.20;99.90
22966;DHT22;11649;48.090;9.754;2023-01-15T16:43:18;3.20;99.90
22966;DHT22;11649;48.090;9.754;2023-01-15T16:46:00;3.30;99.90
22966;DHT22;11649;48.090;9.754;2023-01-15T16:48:32;3.30;99.90
22966;DHT22;11649;48.090;9.754;2023-01-15T16:51:30;3.20;99.90
22966;DHT22;11649;48.090;9.754;2023-01-15T16:53:58;3.20;99.90
22966;DHT22;11649;48.090;9.754;2023-01-15T16:59:09;3.20;99.90
22966;DHT22;11649;48.090;9.754;2023-01-15T17:01:42;3.10;99.90
22966;DHT22;11649;48.090;9.754;2023-01-15T17:04:30;3.00;99.90
22966;DHT22;11649;48.090;9.754;2023-01-15T17:07:04;3.00;99.90
22966;DHT22;11649;48.090;9.754;2023-01-15T17:09:36;3.00;99.90
22966;DHT22;11649;48.090;9.754;2023-01-15T17:12:26;2.90;99.90
22966;DHT22;11649;48.090;9.754;2023-01-15T17:14:59;3.00;99.90
22966;DHT22;11649;48.090;9.754;2023-01-15T17:17:49;3.00;99.90
22966;DHT22;11649;48.090;9.754;2023-01-15T17:20:17;2.80;99.90
22966;DHT22;11649;48.090;9.754;2023-01-15T17:22:46;2.80;99.90
22966;DHT22;11649;48.090;9.754;2023-01-15T17:25:26;2.80;99.90
22966;DHT22;11649;48.090;9.754;2023-01-15T17:27:53;2.80;99.90
22966;DHT22;11649;48.090;9.754;2023-01-15T17:30:21;2.80;99.90
22966;DHT22;11649;48.090;9.754;2023-01-15T17:32:51;2.80;99.90
22966;DHT22;11649;48.090;9.754;2023-01-15T17:35:28;2.80;99.90
22966;DHT22;11649;48.090;9.754;2023-01-15T17:37:55;2.80;99.90
22966;DHT22;11649;48.090;9.754;2023-01-15T17:40:22;2.80;99.90
22966;DHT22;11649;48.090;9.754;2023-01-15T17:42:49;2.70;99.90
22966;DHT22;11649;48.090;9.754;2023-01-15T17:45:19;2.80;99.90
22966;DHT22;11649;48.090;9.754;2023-01-15T17:47:46;2.70;99.90
22966;DHT22;11649;48.090;9.754;2023-01-15T17:50:13;2.60;99.90
22966;DHT22;11649;48.090;9.754;2023-01-15T17:52:40;2.60;99.90
22966;DHT22;11649;48.090;9.754;2023-01-15T17:55:13;2.60;99.90
22966;DHT22;11649;48.090;9.754;2023-01-15T17:57:59;2.60;99.90
22966;DHT22;11649;48.090;9.754;2023-01-15T18:00:45;2.50;99.90
22966;DHT22;11649;48.090;9.754;2023-01-15T18:03:30;2.60;99.90
22966;DHT22;11649;48.090;9.754;2023-01-15T18:06:16;2.50;99.90
22966;DHT22;11649;48.090;9.754;2023-01-15T18:08:48;2.50;99.90
22966;DHT22;11649;48.090;9.754;2023-01-15T18:11:17;2.60;99.90
22966;DHT22;11649;48.090;9.754;2023-01-15T18:13:44;2.60;99.90
22966;DHT22;11649;48.090;9.754;2023-01-15T18:16:11;2.60;99.90